Time;durP1;ratioP1;P1;durP2;ratioP2;P2;SDS_P1;SDS_P2;PMS_P1;PMS_P2;Temp;Humidity;BMP_temperature;BMP_pressure;BME280_temperature;BME280_humidity;BME280_pressure;Samples;Min_cycle;Max_cycle;Signal;HPM_P1;HPM_P2
2022/08/30 00:01:25;;;;;;;25.02;14.38;;;;;;;20.13;76.86;97739.88;10329581;28;20483;-55
2022/08/30 00:06:27;;;;;;;16.70;13.65;;;;;;;20.03;77.27;97724.44;10329636;28;20072;-55
2022/08/30 00:11:27;;;;;;;18.48;14.60;;;;;;;19.99;77.97;97724.63;10329099;28;20486;-55
2022/08/30 00:16:26;;;;;;;16.85;14.68;;;;;;;19.88;79.38;97738.19;10329767;28;20074;-55
2022/08/30 00:21:26;;;;;;;22.50;15.27;;;;;;;19.81;80.28;97750.78;10328126;28;20540;-55
2022/08/30 00:26:24;;;;;;;20.63;16.50;;;;;;;19.64;82.16;97747.91;10329151;28;20084;-55
2022/08/30 00:31:23;;;;;;;18.08;15.27;;;;;;;19.64;82.28;97759.28;10328747;28;20025;-57
2022/08/30 00:36:22;;;;;;;20.80;15.88;;;;;;;19.63;82.28;97769.91;10327780;28;20824;-57
2022/08/30 00:41:21;;;;;;;22.85;17.75;;;;;;;19.49;83.80;97764.25;10327972;28;20124;-57
2022/08/30 00:46:21;;;;;;;23.73;18.35;;;;;;;19.35;84.86;97755.06;10329005;28;20076;-57
2022/08/30 00:51:20;;;;;;;24.90;18.00;;;;;;;19.39;84.63;97759.31;10331353;28;20082;-57
2022/08/30 00:56:20;;;;;;;22.00;17.58;;;;;;;19.45;84.08;97751.19;10331350;28;20463;-57
2022/08/30 01:01:19;;;;;;;19.00;15.68;;;;;;;19.52;83.69;97748.34;10331316;28;20080;-57
2022/08/30 01:06:18;;;;;;;18.00;16.15;;;;;;;19.59;83.31;97755.97;10331272;28;20065;-57
2022/08/30 01:11:20;;;;;;;17.05;15.25;;;;;;;19.57;83.22;97747.28;10330991;28;20072;-55
2022/08/30 01:16:20;;;;;;;18.08;14.38;;;;;;;19.59;82.75;97745.44;10331438;28;20068;-55
2022/08/30 01:21:44;;;;;;;23.73;15.77;;;;;;;19.61;82.52;97742.75;10331785;28;20061;-55
2022/08/30 01:26:43;;;;;;;18.67;14.93;;;;;;;19.61;82.19;97745.41;10338830;28;20072;-55
2022/08/30 01:31:42;;;;;;;19.17;14.52;;;;;;;19.50;82.50;97732.59;10339020;28;20107;-55
2022/08/30 01:36:44;;;;;;;18.85;16.02;;;;;;;19.49;82.54;97733.53;10338703;28;20060;-54
2022/08/30 01:41:44;;;;;;;20.27;15.23;;;;;;;19.44;82.71;97735.47;10337800;28;20071;-55
2022/08/30 01:46:45;;;;;;;22.42;16.23;;;;;;;19.47;82.65;97731.88;10337532;28;20104;-57
2022/08/30 01:51:45;;;;;;;20.95;16.55;;;;;;;19.40;83.29;97734.72;10334547;28;20492;-57
2022/08/30 01:56:44;;;;;;;21.23;16.92;;;;;;;19.41;83.22;97733.78;10333746;28;20502;-55
2022/08/30 02:01:43;;;;;;;20.90;17.10;;;;;;;19.43;83.26;97728.47;10334405;28;20022;-55
2022/08/30 02:06:43;;;;;;;20.33;16.10;;;;;;;19.40;83.28;97721.56;10334010;28;20060;-55
2022/08/30 02:11:43;;;;;;;28.63;17.17;;;;;;;19.48;83.20;97715.13;10333582;28;20076;-55
2022/08/30 02:16:42;;;;;;;18.98;16.58;;;;;;;19.47;83.35;97723.97;10332274;28;20061;-55
2022/08/30 02:21:41;;;;;;;21.50;17.60;;;;;;;19.42;84.02;97725.00;10333091;28;20527;-55
2022/08/30 02:26:41;;;;;;;21.10;17.17;;;;;;;19.42;84.65;97719.72;10333030;28;20048;-55
2022/08/30 02:31:40;;;;;;;23.25;17.98;;;;;;;19.35;85.11;97712.13;10333613;28;20077;-55
2022/08/30 02:36:40;;;;;;;22.05;18.38;;;;;;;19.38;84.88;97714.63;10332450;28;20041;-55
2022/08/30 02:41:40;;;;;;;27.13;18.52;;;;;;;19.39;85.22;97711.06;10332970;28;20081;-55
2022/08/30 02:46:40;;;;;;;23.85;17.98;;;;;;;19.27;85.65;97717.66;10332218;28;20140;-55
2022/08/30 02:51:39;;;;;;;23.42;18.42;;;;;;;19.35;85.59;97720.88;10332179;28;20076;-55
2022/08/30 02:56:38;;;;;;;26.20;19.08;;;;;;;19.37;85.67;97719.03;10331720;28;20056;-55
2022/08/30 03:01:37;;;;;;;24.17;18.38;;;;;;;19.40;85.57;97721.56;10332275;28;20029;-55
2022/08/30 03:06:37;;;;;;;23.65;19.40;;;;;;;19.43;85.68;97718.78;10332707;28;20073;-55
2022/08/30 03:11:36;;;;;;;26.00;18.25;;;;;;;19.44;85.74;97717.91;10331713;28;20069;-55
2022/08/30 03:16:35;;;;;;;23.25;18.52;;;;;;;19.44;85.89;97719.69;10331341;28;20057;-55
2022/08/30 03:21:36;;;;;;;22.80;19.13;;;;;;;19.48;85.87;97728.31;10331096;28;20033;-55
2022/08/30 03:26:35;;;;;;;23.20;18.55;;;;;;;19.52;85.95;97716.75;10330918;28;20529;-55
2022/08/30 03:31:35;;;;;;;25.60;19.08;;;;;;;19.54;85.93;97725.44;10330656;28;20072;-55
2022/08/30 03:36:34;;;;;;;23.88;21.25;;;;;;;19.56;85.89;97731.56;10331504;28;20073;-55
2022/08/30 03:41:34;;;;;;;24.83;18.60;;;;;;;19.50;85.97;97734.38;10329516;28;20048;-55
2022/08/30 03:46:33;;;;;;;27.45;19.38;;;;;;;19.44;86.23;97740.72;10329864;28;20084;-55
2022/08/30 03:51:32;;;;;;;22.90;18.33;;;;;;;19.23;87.16;97745.00;10333391;28;20022;-55
2022/08/30 03:56:31;;;;;;;22.17;17.55;;;;;;;19.11;87.63;97750.69;10332318;28;20069;-55
2022/08/30 04:01:31;;;;;;;28.73;19.42;;;;;;;19.01;88.13;97752.78;10332761;28;20080;-55
2022/08/30 04:06:30;;;;;;;25.52;19.27;;;;;;;18.96;88.27;97750.31;10332906;28;20065;-55
2022/08/30 04:11:29;;;;;;;22.25;18.75;;;;;;;19.05;88.23;97750.91;10332329;28;20064;-56
2022/08/30 04:16:28;;;;;;;21.85;18.42;;;;;;;19.09;88.26;97747.25;10332429;28;20029;-56
2022/08/30 04:21:27;;;;;;;23.42;19.88;;;;;;;19.19;88.06;97748.66;10332440;28;20033;-56
2022/08/30 04:26:26;;;;;;;22.67;18.30;;;;;;;19.18;88.13;97763.59;10331449;28;20077;-56
2022/08/30 04:31:26;;;;;;;30.58;19.13;;;;;;;19.24;88.21;97757.22;10331740;28;20443;-56
2022/08/30 04:36:26;;;;;;;21.38;16.80;;;;;;;19.24;88.38;97762.50;10332433;28;20072;-56
2022/08/30 04:41:26;;;;;;;21.45;17.15;;;;;;;19.08;89.14;97763.94;10331214;28;20471;-56
2022/08/30 04:46:25;;;;;;;23.90;18.60;;;;;;;19.12;88.59;97760.31;10331118;28;20077;-56
2022/08/30 04:51:25;;;;;;;23.50;18.25;;;;;;;19.02;89.03;97771.16;10328014;28;20037;-56
2022/08/30 04:56:24;;;;;;;21.10;18.88;;;;;;;18.78;90.37;97782.47;10327540;28;20481;-56
2022/08/30 05:01:26;;;;;;;24.48;20.63;;;;;;;18.68;91.30;97787.19;10336904;28;20491;-56
2022/08/30 05:06:27;;;;;;;28.25;21.83;;;;;;;18.70;91.51;97785.38;10336864;28;20451;-56
2022/08/30 05:11:29;;;;;;;25.85;20.38;;;;;;;18.94;90.96;97788.09;10336272;28;20079;-56
2022/08/30 05:16:30;;;;;;;30.30;21.65;;;;;;;19.12;90.27;97786.59;10333617;28;20057;-56
2022/08/30 05:21:30;;;;;;;28.67;20.75;;;;;;;19.28;89.69;97793.06;10308275;28;20052;-56
2022/08/30 05:26:31;;;;;;;28.58;22.02;;;;;;;19.47;89.22;97792.41;10333526;28;20559;-56
2022/08/30 05:31:33;;;;;;;27.10;21.08;;;;;;;19.54;88.35;97784.22;10333038;28;20080;-56
2022/08/30 05:36:34;;;;;;;25.63;19.65;;;;;;;19.65;87.93;97791.75;10333543;28;20514;-56
2022/08/30 05:41:34;;;;;;;25.63;19.67;;;;;;;19.75;87.46;97779.09;10334570;28;20061;-56
2022/08/30 05:46:34;;;;;;;25.73;20.35;;;;;;;19.85;87.17;97780.47;10333561;28;20064;-56
2022/08/30 05:51:34;;;;;;;27.38;21.45;;;;;;;20.03;86.97;97781.53;10334197;28;20080;-56
2022/08/30 05:56:35;;;;;;;26.95;20.65;;;;;;;20.24;85.75;97775.44;10334162;28;20057;-56
2022/08/30 06:01:39;;;;;;;28.42;22.40;;;;;;;20.43;85.56;97780.00;10333516;28;20471;-56
2022/08/30 06:06:41;;;;;;;24.92;20.67;;;;;;;20.70;84.94;97786.78;10313260;28;20074;-56
2022/08/30 06:11:40;;;;;;;23.92;20.25;;;;;;;20.99;83.17;97787.34;10323898;28;20120;-56
2022/08/30 06:16:39;;;;;;;25.92;20.27;;;;;;;21.02;81.87;97791.63;10329724;28;20049;-56
2022/08/30 06:21:39;;;;;;;23.70;18.90;;;;;;;21.19;81.75;97785.63;10330984;28;20503;-56
2022/08/30 06:26:41;;;;;;;23.30;17.40;;;;;;;21.36;80.67;97796.34;10332024;28;20487;-56
2022/08/30 06:31:41;;;;;;;21.73;17.80;;;;;;;21.52;79.89;97794.75;10332175;28;20065;-56
2022/08/30 06:36:40;;;;;;;23.92;17.40;;;;;;;21.67;78.32;97792.31;10333152;28;20072;-56
2022/08/30 06:41:40;;;;;;;21.75;17.52;;;;;;;21.94;77.76;97806.94;10326038;28;20137;-56
2022/08/30 06:46:39;;;;;;;22.90;17.80;;;;;;;22.25;76.29;97807.28;10332747;28;20077;-56
2022/08/30 06:51:39;;;;;;;20.42;17.83;;;;;;;22.34;74.66;97804.19;10334835;28;20033;-57
2022/08/30 06:56:39;;;;;;;24.08;19.35;;;;;;;22.38;74.77;97809.28;10328330;28;20061;-57
2022/08/30 07:01:38;;;;;;;28.92;21.90;;;;;;;22.38;75.04;97800.50;10334724;28;20482;-57
2022/08/30 07:06:37;;;;;;;29.63;22.33;;;;;;;22.50;74.96;97805.19;10335079;28;20107;-57
2022/08/30 07:11:37;;;;;;;27.35;21.67;;;;;;;22.77;73.76;97800.38;10334449;28;20025;-56
2022/08/30 07:16:36;;;;;;;28.27;20.08;;;;;;;22.98;72.22;97801.09;10334517;28;20491;-56
2022/08/30 07:21:44;;;;;;;26.48;20.13;;;;;;;23.32;72.20;97801.13;10332275;28;20052;-57
2022/08/30 07:26:48;;;;;;;26.07;19.40;;;;;;;23.71;70.30;97807.97;10334577;28;20493;-56
2022/08/30 07:31:47;;;;;;;28.58;18.70;;;;;;;23.94;69.07;97812.88;10333460;28;20718;-57
2022/08/30 07:36:46;;;;;;;19.42;15.50;;;;;;;24.14;65.13;97818.88;10333631;28;20426;-57
2022/08/30 07:41:45;;;;;;;22.95;15.10;;;;;;;24.24;65.83;97820.13;10333999;28;20048;-56
2022/08/30 07:46:44;;;;;;;17.13;13.13;;;;;;;24.54;65.25;97822.84;10329278;28;20076;-57
2022/08/30 07:51:43;;;;;;;19.35;13.07;;;;;;;24.79;63.31;97822.31;10330104;28;20107;-57
2022/08/30 07:56:42;;;;;;;18.15;12.43;;;;;;;24.89;63.63;97828.84;10336227;28;20417;-57
2022/08/30 08:01:41;;;;;;;16.20;12.43;;;;;;;25.07;63.26;97820.72;10329138;28;20045;-57
2022/08/30 08:06:41;;;;;;;19.63;12.93;;;;;;;25.12;62.26;97829.28;10330004;28;20499;-55
2022/08/30 08:11:40;;;;;;;16.52;13.32;;;;;;;25.17;63.09;97831.66;10328562;28;20056;-58
2022/08/30 08:16:41;;;;;;;17.70;12.80;;;;;;;25.15;62.73;97828.25;10328954;28;20068;-56
2022/08/30 08:21:40;;;;;;;13.98;12.52;;;;;;;25.09;61.64;97818.84;10327162;28;20084;-56
2022/08/30 08:26:40;;;;;;;44.17;30.52;;;;;;;25.16;60.44;97828.16;10329538;28;20081;-57
2022/08/30 08:31:40;;;;;;;26.00;16.25;;;;;;;25.21;59.21;97827.88;10329061;28;20071;-57
2022/08/30 08:36:39;;;;;;;18.77;14.60;;;;;;;25.26;60.66;97831.13;10328734;28;20068;-57
2022/08/30 08:41:50;;;;;;;17.98;12.52;;;;;;;25.43;60.71;97824.78;10327691;28;20528;-57
2022/08/30 08:47:08;;;;;;;14.73;11.75;;;;;;;25.62;60.35;97827.22;10347190;28;20080;-55
2022/08/30 08:57:40;;;;;;;18.30;11.57;;;;;;;25.90;57.58;97837.00;10328556;28;20475;-56
2022/08/30 09:02:43;;;;;;;15.82;10.98;;;;;;;25.88;56.58;97828.28;10328345;28;20080;-56
2022/08/30 09:07:51;;;;;;;14.82;11.07;;;;;;;25.98;55.83;97828.56;10327500;28;20080;-56
2022/08/30 09:12:50;;;;;;;14.23;11.80;;;;;;;25.98;55.59;97825.91;10329736;28;20072;-56
2022/08/30 09:18:03;;;;;;;15.68;11.95;;;;;;;26.24;56.88;97824.28;10330237;28;20040;-56
2022/08/30 09:23:26;;;;;;;14.45;11.15;;;;;;;26.47;54.74;97820.16;10329444;28;20073;-58
2022/08/30 09:28:29;;;;;;;14.32;10.30;;;;;;;26.47;53.79;97817.50;10286983;28;20116;-58
2022/08/30 09:33:29;;;;;;;13.88;10.55;;;;;;;26.54;53.53;97822.31;10325786;28;20072;-58
2022/08/30 09:38:32;;;;;;;16.17;12.02;;;;;;;26.54;53.05;97822.31;10329570;28;20068;-56
2022/08/30 09:43:33;;;;;;;15.63;12.48;;;;;;;26.25;52.91;97810.03;10332673;28;20081;-56
2022/08/30 09:48:39;;;;;;;19.00;13.50;;;;;;;26.15;54.22;97812.41;10336970;28;20072;-57
2022/08/30 09:53:53;;;;;;;20.42;14.30;;;;;;;25.83;54.33;97817.06;10336795;28;20076;-57
2022/08/30 09:59:01;;;;;;;18.60;14.65;;;;;;;25.70;54.96;97815.19;10335340;28;20571;-57
2022/08/30 10:04:04;;;;;;;;;;;;;;;25.68;54.64;97816.22;10336527;28;20131;-57
2022/08/30 10:09:32;;;;;;;17.10;11.13;;;;;;;25.65;54.61;97811.94;10337026;28;19967;-57
2022/08/30 10:14:55;;;;;;;13.90;11.40;;;;;;;25.74;55.67;97799.91;10335031;28;20064;-57
2022/08/30 10:19:57;;;;;;;13.85;11.68;;;;;;;25.87;56.69;97805.31;10336158;28;20068;-57
2022/08/30 10:25:05;;;;;;;16.75;12.88;;;;;;;25.73;59.20;97804.34;10335417;28;20080;-57
2022/08/30 10:30:12;;;;;;;24.02;16.02;;;;;;;25.45;62.53;97806.97;10336486;28;20079;-57
2022/08/30 10:35:24;;;;;;;16.63;15.00;;;;;;;25.03;64.87;97805.91;10335128;28;20478;-57
2022/08/30 10:45:52;;;;;;;23.88;19.08;;;;;;;24.39;70.81;97811.31;10329730;28;20092;-57
2022/08/30 10:50:55;;;;;;;25.60;19.73;;;;;;;24.19;73.12;97824.81;10330784;28;20092;-57
2022/08/30 10:56:01;;;;;;;21.50;15.80;;;;;;;24.10;76.08;97815.56;10327947;28;20071;-57
2022/08/30 11:01:03;;;;;;;16.23;13.75;;;;;;;23.94;74.45;97807.59;10329672;28;20069;-57
2022/08/30 11:06:08;;;;;;;19.75;14.07;;;;;;;23.75;73.93;97812.16;10328754;28;20060;-57
2022/08/30 11:11:13;;;;;;;22.92;15.85;;;;;;;23.50;74.67;97817.91;10331508;28;20073;-57
2022/08/30 11:16:15;;;;;;;19.48;15.05;;;;;;;23.28;76.48;97804.88;10331643;28;20534;-57
2022/08/30 11:21:32;;;;;;;22.38;16.00;;;;;;;23.14;78.84;97795.88;10331275;28;20075;-57
2022/08/30 11:26:49;;;;;;;19.30;16.00;;;;;;;23.04;80.16;97799.06;10330873;28;20072;-57
2022/08/30 11:31:48;;;;;;;18.95;15.75;;;;;;;22.90;80.63;97802.41;10330331;28;20076;-57
2022/08/30 11:36:50;;;;;;;28.30;18.02;;;;;;;22.85;81.61;97804.41;10331240;28;20025;-57
2022/08/30 11:42:23;;;;;;;20.85;17.33;;;;;;;22.77;81.96;97799.53;10329953;28;20469;-57
2022/08/30 11:47:45;;;;;;;21.92;17.80;;;;;;;22.71;82.16;97800.63;10330614;28;20080;-57
2022/08/30 11:53:13;;;;;;;19.58;16.80;;;;;;;22.73;81.64;97789.97;10333716;28;20076;-57
2022/08/30 11:58:39;;;;;;;19.42;15.98;;;;;;;22.84;81.36;97784.19;10333060;28;20073;-57
2022/08/30 12:03:40;;;;;;;22.77;16.52;;;;;;;22.89;81.02;97774.22;10332960;28;20335;-57
2022/08/30 12:08:43;;;;;;;19.92;16.45;;;;;;;23.08;80.23;97767.06;10332030;28;20096;-57
2022/08/30 12:13:42;;;;;;;17.35;14.25;;;;;;;23.31;79.07;97765.88;10332804;28;20057;-57
2022/08/30 12:18:47;;;;;;;16.13;13.73;;;;;;;23.61;77.88;97758.13;10331939;28;20037;-57
2022/08/30 12:23:59;;;;;;;16.98;12.98;;;;;;;23.88;75.32;97760.19;10318948;28;20053;-57
2022/08/30 12:29:21;;;;;;;17.05;12.85;;;;;;;24.05;72.96;97757.50;10332259;28;20067;-57
2022/08/30 12:34:25;;;;;;;16.30;12.90;;;;;;;24.24;71.66;97741.44;10332108;28;20475;-57
2022/08/30 12:39:26;;;;;;;18.45;12.38;;;;;;;24.60;70.44;97750.03;10331861;28;20065;-57
2022/08/30 12:44:27;;;;;;;16.65;12.48;;;;;;;24.73;66.60;97727.13;10332110;28;20077;-56
2022/08/30 12:49:30;;;;;;;20.48;12.57;;;;;;;24.84;67.04;97714.06;10329869;28;20084;-57
2022/08/30 12:54:29;;;;;;;15.07;11.70;;;;;;;24.90;65.86;97711.09;10328214;28;20075;-57
2022/08/30 12:59:43;;;;;;;17.50;11.95;;;;;;;25.18;65.40;97706.75;10328749;28;20079;-56
2022/08/30 13:04:46;;;;;;;14.05;11.02;;;;;;;25.54;65.39;97694.84;10328552;28;20073;-57
2022/08/30 13:09:45;;;;;;;15.15;10.85;;;;;;;25.75;62.91;97695.28;10327452;28;20076;-57
2022/08/30 13:14:44;;;;;;;14.98;10.85;;;;;;;26.07;62.58;97679.06;10328260;28;20025;-56
2022/08/30 13:19:55;;;;;;;16.52;11.25;;;;;;;26.22;60.63;97677.25;10332520;28;20076;-57
2022/08/30 13:24:54;;;;;;;12.05;9.70;;;;;;;26.40;58.26;97668.03;10335108;28;20061;-57
2022/08/30 13:29:54;;;;;;;10.52;8.30;;;;;;;26.29;53.83;97668.75;10334869;28;20092;-56
2022/08/30 13:34:53;;;;;;;12.63;10.23;;;;;;;26.22;57.16;97669.25;10321737;28;20049;-57
2022/08/30 13:39:52;;;;;;;14.07;9.52;;;;;;;26.36;56.27;97666.53;10335979;28;20037;-57
2022/08/30 13:44:51;;;;;;;12.32;9.52;;;;;;;26.44;54.70;97631.41;10334696;28;20049;-57
2022/08/30 13:49:50;;;;;;;15.50;10.73;;;;;;;26.84;55.08;97647.34;10336978;28;20095;-57
2022/08/30 13:54:54;;;;;;;13.75;10.18;;;;;;;26.98;54.29;97634.81;10335497;28;20041;-58
2022/08/30 13:59:53;;;;;;;12.85;10.05;;;;;;;26.99;54.21;97631.19;10335714;28;20581;-57
2022/08/30 14:04:52;;;;;;;14.00;9.38;;;;;;;26.88;52.48;97638.22;10335402;28;20535;-56
2022/08/30 14:09:51;;;;;;;14.43;9.60;;;;;;;26.45;53.03;97641.13;10334931;28;20494;-56
2022/08/30 14:14:50;;;;;;;13.75;9.73;;;;;;;26.17;52.24;97630.47;10334960;28;20476;-56
2022/08/30 14:19:49;;;;;;;17.77;11.88;;;;;;;26.03;53.10;97622.56;10334940;28;20077;-57
2022/08/30 14:24:48;;;;;;;13.65;9.95;;;;;;;25.82;53.82;97621.31;10332500;28;20042;-57
2022/08/30 14:29:47;;;;;;;13.75;10.27;;;;;;;25.84;53.56;97620.25;10334281;28;20029;-57
2022/08/30 14:34:47;;;;;;;13.65;9.68;;;;;;;25.88;53.93;97616.47;10333848;28;20061;-57
2022/08/30 14:39:46;;;;;;;17.00;9.57;;;;;;;25.76;53.88;97621.69;10334112;28;20068;-57
2022/08/30 14:44:45;;;;;;;16.13;11.07;;;;;;;25.57;55.12;97616.72;10332525;28;20050;-57
2022/08/30 14:49:44;;;;;;;12.52;11.05;;;;;;;25.46;56.50;97625.38;10333138;28;20045;-57
2022/08/30 14:54:43;;;;;;;15.77;11.57;;;;;;;25.38;57.03;97622.31;10331432;28;20795;-56
2022/08/30 14:59:42;;;;;;;15.98;11.63;;;;;;;25.18;58.11;97618.28;10330244;28;20072;-56
2022/08/30 15:04:41;;;;;;;13.15;11.20;;;;;;;25.15;58.11;97600.72;10332225;28;20113;-57
2022/08/30 15:09:41;;;;;;;14.50;12.27;;;;;;;25.18;58.33;97611.16;10349944;28;20086;-56
2022/08/30 15:14:40;;;;;;;16.25;12.90;;;;;;;25.13;58.38;97599.97;10351941;28;20057;-57
2022/08/30 15:19:39;;;;;;;15.30;11.95;;;;;;;25.17;58.34;97598.81;10333223;28;20035;-57
2022/08/30 15:24:39;;;;;;;17.52;11.95;;;;;;;25.17;58.72;97605.94;10330807;28;20072;-57
2022/08/30 15:29:38;;;;;;;15.20;10.85;;;;;;;25.24;59.52;97610.75;10331842;28;20071;-57
2022/08/30 15:34:37;;;;;;;14.88;9.90;;;;;;;25.36;59.21;97595.00;10317639;28;20026;-58
2022/08/30 15:39:36;;;;;;;10.50;9.38;;;;;;;25.46;59.42;97593.47;10317897;28;20952;-57
2022/08/30 15:44:35;;;;;;;13.15;9.10;;;;;;;25.47;58.55;97585.41;10321728;28;20512;-56
2022/08/30 15:49:34;;;;;;;12.50;9.85;;;;;;;25.41;58.04;97590.25;10313002;28;20501;-56
2022/08/30 15:54:33;;;;;;;11.40;10.00;;;;;;;25.37;57.47;97584.28;10322172;28;20446;-56
2022/08/30 15:59:32;;;;;;;14.02;9.15;;;;;;;25.35;56.08;97582.69;10320369;28;20045;-56
2022/08/30 16:04:31;;;;;;;11.60;8.98;;;;;;;25.24;56.07;97583.34;10326992;28;20033;-57
2022/08/30 16:09:30;;;;;;;13.75;10.50;;;;;;;25.12;56.23;97577.00;10328601;28;20036;-57
2022/08/30 16:14:30;;;;;;;15.13;10.50;;;;;;;25.05;56.84;97588.97;10326878;28;20396;-56
2022/08/30 16:19:29;;;;;;;16.95;11.43;;;;;;;24.87;58.61;97594.50;10324445;28;20483;-57
2022/08/30 16:24:28;;;;;;;14.85;10.82;;;;;;;24.69;59.02;97591.13;10319508;28;20453;-57
2022/08/30 16:29:27;;;;;;;13.27;10.80;;;;;;;24.57;59.75;97598.97;10366614;28;20068;-56
2022/08/30 16:34:26;;;;;;;15.05;10.98;;;;;;;24.40;60.10;97598.19;10367692;28;20361;-56
2022/08/30 16:39:25;;;;;;;15.82;11.50;;;;;;;24.15;59.90;97605.84;10368220;28;20502;-56
2022/08/30 16:44:24;;;;;;;17.08;11.07;;;;;;;23.92;60.60;97601.88;10366887;28;20072;-56
2022/08/30 16:49:23;;;;;;;14.85;11.02;;;;;;;23.68;60.61;97612.06;10365938;28;20025;-56
2022/08/30 16:54:22;;;;;;;15.45;10.73;;;;;;;23.43;61.26;97610.75;10361390;28;20061;-56
2022/08/30 16:59:22;;;;;;;20.20;11.40;;;;;;;23.21;61.85;97616.41;10341478;28;20076;-58
2022/08/30 17:04:21;;;;;;;16.38;12.43;;;;;;;22.99;62.68;97616.69;10344815;28;20069;-56
2022/08/30 17:09:20;;;;;;;18.88;11.93;;;;;;;22.80;63.58;97627.38;10344806;28;20065;-56
2022/08/30 17:14:19;;;;;;;15.88;12.50;;;;;;;22.58;64.19;97625.84;10345715;28;20061;-56
2022/08/30 17:19:18;;;;;;;18.08;12.60;;;;;;;22.41;64.45;97632.91;10341848;28;20069;-56
2022/08/30 17:24:17;;;;;;;17.52;12.60;;;;;;;22.20;65.18;97635.69;10343769;28;20068;-56
2022/08/30 17:29:16;;;;;;;15.02;11.75;;;;;;;22.04;65.31;97637.38;10347237;28;20025;-56
2022/08/30 17:34:15;;;;;;;15.57;12.63;;;;;;;21.86;65.43;97634.69;10347670;28;20045;-56
2022/08/30 17:39:15;;;;;;;16.42;12.15;;;;;;;21.67;65.13;97653.22;10347886;28;20061;-56
2022/08/30 17:44:14;;;;;;;22.13;12.90;;;;;;;21.51;65.56;97654.84;10346394;28;20594;-58
2022/08/30 17:49:13;;;;;;;16.17;12.30;;;;;;;21.37;65.93;97662.56;10344726;28;20479;-56
2022/08/30 17:54:12;;;;;;;14.52;11.70;;;;;;;21.24;66.30;97681.59;10343461;28;20506;-56
2022/08/30 17:59:13;;;;;;;19.98;13.32;;;;;;;21.12;66.79;97680.34;10343967;28;20472;-56
2022/08/30 18:04:14;;;;;;;18.63;13.63;;;;;;;20.92;68.55;97683.00;10339656;28;20064;-56
2022/08/30 18:09:13;;;;;;;19.45;14.43;;;;;;;20.81;69.52;97679.97;10337704;28;20053;-56
2022/08/30 18:14:11;;;;;;;21.73;14.90;;;;;;;20.77;70.05;97688.94;10336608;28;20033;-56
2022/08/30 18:19:10;;;;;;;21.98;15.50;;;;;;;20.71;70.54;97696.19;10335003;28;20037;-56
2022/08/30 18:24:10;;;;;;;16.60;13.23;;;;;;;20.62;70.75;97706.28;10330333;28;20053;-56
2022/08/30 18:29:10;;;;;;;17.55;13.63;;;;;;;20.45;70.81;97699.09;10336507;28;20568;-56
2022/08/30 18:34:09;;;;;;;19.67;13.80;;;;;;;20.43;71.30;97712.31;10335918;28;20064;-56
2022/08/30 18:39:08;;;;;;;22.27;15.18;;;;;;;20.28;72.56;97713.78;10336671;28;20073;-56
2022/08/30 18:44:08;;;;;;;21.75;15.30;;;;;;;20.06;73.90;97705.03;10330050;28;20083;-56
2022/08/30 18:49:07;;;;;;;22.77;14.95;;;;;;;19.97;75.24;97714.13;10335567;28;20068;-56
2022/08/30 18:54:06;;;;;;;20.75;15.57;;;;;;;19.95;75.43;97710.69;10335377;28;20040;-56
2022/08/30 18:59:05;;;;;;;20.58;15.02;;;;;;;19.99;75.80;97720.22;10335524;28;20064;-56
2022/08/30 19:04:05;;;;;;;23.45;16.70;;;;;;;20.00;76.83;97718.41;10334598;28;20072;-56
2022/08/30 19:09:04;;;;;;;24.58;17.73;;;;;;;19.99;77.10;97711.44;10335170;28;20080;-56
2022/08/30 19:14:03;;;;;;;21.63;17.40;;;;;;;20.02;77.71;97711.31;10333012;28;20041;-56
2022/08/30 19:19:03;;;;;;;21.73;17.23;;;;;;;20.04;78.15;97709.50;10334735;28;20842;-56
2022/08/30 19:24:02;;;;;;;24.25;17.77;;;;;;;20.07;78.52;97712.00;10333685;28;20064;-56
2022/08/30 19:29:01;;;;;;;23.90;17.63;;;;;;;20.00;79.39;97719.31;10333775;28;20149;-56
2022/08/30 19:34:01;;;;;;;22.65;16.30;;;;;;;19.99;79.26;97717.56;10333664;28;20057;-56
2022/08/30 19:39:00;;;;;;;21.95;17.55;;;;;;;20.01;78.75;97723.63;10332919;28;20076;-56
2022/08/30 19:44:01;;;;;;;22.15;16.40;;;;;;;19.95;78.35;97721.25;10330412;28;20057;-56
2022/08/30 19:49:02;;;;;;;17.67;15.05;;;;;;;19.98;78.47;97717.66;10330388;28;20076;-56
2022/08/30 19:54:02;;;;;;;19.75;15.43;;;;;;;19.99;78.37;97708.81;10333974;28;20076;-56
2022/08/30 19:59:01;;;;;;;23.48;15.52;;;;;;;20.02;78.07;97716.59;10333584;28;20076;-56
2022/08/30 20:04:01;;;;;;;18.20;14.95;;;;;;;19.97;78.06;97692.22;10334230;28;20489;-56
2022/08/30 20:09:00;;;;;;;21.60;14.25;;;;;;;19.97;77.93;97702.75;10333876;28;20099;-56
2022/08/30 20:13:59;;;;;;;18.80;14.82;;;;;;;19.99;77.77;97708.81;10332703;28;20060;-56
2022/08/30 20:18:58;;;;;;;17.10;14.68;;;;;;;19.99;78.05;97712.31;10332816;28;20033;-56
2022/08/30 20:23:59;;;;;;;19.95;14.90;;;;;;;19.94;78.07;97708.16;10333097;28;20076;-57
2022/08/30 20:28:59;;;;;;;18.15;14.60;;;;;;;19.77;79.23;97717.56;10332091;28;20069;-56
2022/08/30 20:33:58;;;;;;;19.20;15.32;;;;;;;19.56;81.00;97707.88;10316090;28;20080;-56
2022/08/30 20:38:57;;;;;;;19.48;16.38;;;;;;;19.45;81.66;97722.22;10337641;28;20071;-55
2022/08/30 20:43:57;;;;;;;22.10;15.88;;;;;;;19.41;82.20;97718.00;10331946;28;20045;-56
2022/08/30 20:49:00;;;;;;;23.40;17.83;;;;;;;19.38;82.72;97714.63;10318603;28;20077;-56
2022/08/30 20:54:00;;;;;;;21.83;19.20;;;;;;;19.36;82.86;97706.78;10328058;28;20076;-56
2022/08/30 20:59:03;;;;;;;23.80;18.40;;;;;;;19.36;83.25;97704.16;10329161;28;20065;-56
2022/08/30 21:04:02;;;;;;;22.67;17.38;;;;;;;19.37;83.67;97699.75;10327915;28;20076;-56
2022/08/30 21:09:05;;;;;;;25.60;18.30;;;;;;;19.31;84.31;97695.56;10327965;28;20064;-56
2022/08/30 21:14:04;;;;;;;22.98;17.77;;;;;;;19.28;84.52;97687.81;10328774;28;20065;-57
2022/08/30 21:19:03;;;;;;;23.00;19.38;;;;;;;19.24;84.90;97688.81;10328243;28;20473;-56
2022/08/30 21:24:08;;;;;;;25.40;19.45;;;;;;;19.16;85.25;97694.38;10328281;28;20061;-56
2022/08/30 21:29:08;;;;;;;25.73;18.35;;;;;;;19.13;85.44;97694.47;10328729;28;20124;-56
2022/08/30 21:34:07;;;;;;;24.58;18.88;;;;;;;19.10;85.24;97691.97;10327713;28;20076;-56
2022/08/30 21:39:06;;;;;;;28.85;20.40;;;;;;;19.08;85.60;97690.31;10329832;28;20065;-56
2022/08/30 21:44:09;;;;;;;25.58;20.02;;;;;;;18.86;86.37;97670.03;10335832;28;20103;-56
2022/08/30 21:49:10;;;;;;;24.85;18.88;;;;;;;18.77;87.07;97687.00;10335285;28;20133;-56
2022/08/30 21:54:11;;;;;;;27.02;19.55;;;;;;;18.78;86.68;97699.25;10334818;28;20071;-56
2022/08/30 21:59:11;;;;;;;26.08;20.52;;;;;;;18.77;86.78;97689.63;10334947;28;20065;-56
2022/08/30 22:04:12;;;;;;;27.33;20.98;;;;;;;18.70;87.26;97697.78;10334410;28;20079;-56
2022/08/30 22:09:15;;;;;;;26.00;21.15;;;;;;;18.49;88.20;97684.44;10334203;28;20081;-56
2022/08/30 22:14:15;;;;;;;29.70;21.13;;;;;;;18.48;88.14;97687.97;10333455;28;20083;-56
2022/08/30 22:19:14;;;;;;;27.23;21.45;;;;;;;18.50;88.77;97704.56;10330673;28;20071;-56
2022/08/30 22:24:14;;;;;;;28.95;22.42;;;;;;;18.44;89.18;97694.25;10330156;28;20069;-56
2022/08/30 22:29:13;;;;;;;27.70;22.10;;;;;;;18.38;89.38;97692.66;10332088;28;20522;-56
2022/08/30 22:34:12;;;;;;;29.23;23.13;;;;;;;18.34;89.52;97683.19;10333204;28;20088;-56
2022/08/30 22:39:12;;;;;;;27.02;21.35;;;;;;;18.31;89.71;97692.91;10333723;28;20088;-56
2022/08/30 22:44:11;;;;;;;25.30;19.75;;;;;;;18.24;89.87;97686.16;10333602;28;20546;-56
2022/08/30 22:49:10;;;;;;;22.33;19.48;;;;;;;18.15;89.68;97688.19;10332470;28;20077;-56
2022/08/30 22:54:09;;;;;;;27.20;18.92;;;;;;;18.12;89.25;97684.78;10332707;28;20053;-57
2022/08/30 22:59:08;;;;;;;28.83;22.42;;;;;;;18.07;89.94;97687.56;10332559;28;20032;-57